sensor_id;sensor_type;location;lat;lon;timestamp;P1;P2;P0
57623;PMS7003;43448;52.264;20.644;2023-05-09T00:00:01;13;12;
57623;PMS7003;43448;52.264;20.644;2023-05-09T00:10:00;10;10;
57623;PMS7003;43448;52.264;20.644;2023-05-09T00:20:01;10;9;
57623;PMS7003;43448;52.264;20.644;2023-05-09T00:30:01;13;12;
57623;PMS7003;43448;52.264;20.644;2023-05-09T00:40:01;11;9;
57623;PMS7003;43448;52.264;20.644;2023-05-09T00:50:01;10;10;
57623;PMS7003;43448;52.264;20.644;2023-05-09T01:00:01;9;8;
57623;PMS7003;43448;52.264;20.644;2023-05-09T01:10:01;9;9;
57623;PMS7003;43448;52.264;20.644;2023-05-09T01:20:02;10;10;
57623;PMS7003;43448;52.264;20.644;2023-05-09T01:30:01;14;12;
57623;PMS7003;43448;52.264;20.644;2023-05-09T01:40:03;11;10;
57623;PMS7003;43448;52.264;20.644;2023-05-09T01:50:01;11;9;
57623;PMS7003;43448;52.264;20.644;2023-05-09T02:00:01;16;15;
57623;PMS7003;43448;52.264;20.644;2023-05-09T02:10:01;12;10;
57623;PMS7003;43448;52.264;20.644;2023-05-09T02:20:00;10;10;
57623;PMS7003;43448;52.264;20.644;2023-05-09T02:30:02;14;10;
57623;PMS7003;43448;52.264;20.644;2023-05-09T02:40:00;13;9;
57623;PMS7003;43448;52.264;20.644;2023-05-09T02:50:00;12;12;
57623;PMS7003;43448;52.264;20.644;2023-05-09T03:00:01;13;11;
57623;PMS7003;43448;52.264;20.644;2023-05-09T03:10:00;12;11;
57623;PMS7003;43448;52.264;20.644;2023-05-09T03:20:00;14;11;
57623;PMS7003;43448;52.264;20.644;2023-05-09T03:30:00;9;9;
57623;PMS7003;43448;52.264;20.644;2023-05-09T03:40:00;10;10;
57623;PMS7003;43448;52.264;20.644;2023-05-09T03:50:00;13;10;
57623;PMS7003;43448;52.264;20.644;2023-05-09T04:00:01;12;11;
57623;PMS7003;43448;52.264;20.644;2023-05-09T04:10:00;13;11;
57623;PMS7003;43448;52.264;20.644;2023-05-09T04:20:00;14;12;
57623;PMS7003;43448;52.264;20.644;2023-05-09T04:30:00;14;13;
57623;PMS7003;43448;52.264;20.644;2023-05-09T04:40:00;16;13;
57623;PMS7003;43448;52.264;20.644;2023-05-09T04:50:00;17;14;
57623;PMS7003;43448;52.264;20.644;2023-05-09T05:00:01;18;15;
57623;PMS7003;43448;52.264;20.644;2023-05-09T05:10:00;16;13;
57623;PMS7003;43448;52.264;20.644;2023-05-09T05:20:00;17;14;
57623;PMS7003;43448;52.264;20.644;2023-05-09T05:30:00;15;13;
57623;PMS7003;43448;52.264;20.644;2023-05-09T05:40:01;14;12;
57623;PMS7003;43448;52.264;20.644;2023-05-09T05:50:01;19;15;
57623;PMS7003;43448;52.264;20.644;2023-05-09T06:00:01;12;12;
57623;PMS7003;43448;52.264;20.644;2023-05-09T06:10:01;16;12;
57623;PMS7003;43448;52.264;20.644;2023-05-09T06:20:00;14;12;
57623;PMS7003;43448;52.264;20.644;2023-05-09T06:30:00;16;12;
57623;PMS7003;43448;52.264;20.644;2023-05-09T06:40:00;13;11;
57623;PMS7003;43448;52.264;20.644;2023-05-09T06:50:00;10;9;
57623;PMS7003;43448;52.264;20.644;2023-05-09T07:00:01;12;11;
57623;PMS7003;43448;52.264;20.644;2023-05-09T07:10:00;10;10;
57623;PMS7003;43448;52.264;20.644;2023-05-09T07:20:00;9;9;
57623;PMS7003;43448;52.264;20.644;2023-05-09T07:30:00;14;10;
57623;PMS7003;43448;52.264;20.644;2023-05-09T07:40:00;9;8;
57623;PMS7003;43448;52.264;20.644;2023-05-09T07:50:00;8;8;
57623;PMS7003;43448;52.264;20.644;2023-05-09T08:00:01;11;9;
57623;PMS7003;43448;52.264;20.644;2023-05-09T08:10:00;8;8;
57623;PMS7003;43448;52.264;20.644;2023-05-09T08:20:00;10;9;
57623;PMS7003;43448;52.264;20.644;2023-05-09T08:30:01;7;7;
57623;PMS7003;43448;52.264;20.644;2023-05-09T08:40:01;6;6;
57623;PMS7003;43448;52.264;20.644;2023-05-09T08:50:01;6;6;
57623;PMS7003;43448;52.264;20.644;2023-05-09T09:00:01;9;6;
57623;PMS7003;43448;52.264;20.644;2023-05-09T09:10:01;8;7;
57623;PMS7003;43448;52.264;20.644;2023-05-09T09:20:01;7;5;
57623;PMS7003;43448;52.264;20.644;2023-05-09T09:30:08;5;4;
57623;PMS7003;43448;52.264;20.644;2023-05-09T09:40:01;7;7;
57623;PMS7003;43448;52.264;20.644;2023-05-09T09:50:08;6;6;
57623;PMS7003;43448;52.264;20.644;2023-05-09T10:00:01;5;4;
57623;PMS7003;43448;52.264;20.644;2023-05-09T10:10:01;5;4;
57623;PMS7003;43448;52.264;20.644;2023-05-09T10:20:01;4;4;
57623;PMS7003;43448;52.264;20.644;2023-05-09T10:30:01;7;5;
57623;PMS7003;43448;52.264;20.644;2023-05-09T10:40:02;6;5;
57623;PMS7003;43448;52.264;20.644;2023-05-09T10:50:00;4;4;
57623;PMS7003;43448;52.264;20.644;2023-05-09T11:00:01;4;3;
57623;PMS7003;43448;52.264;20.644;2023-05-09T11:10:06;5;3;
57623;PMS7003;43448;52.264;20.644;2023-05-09T11:20:02;4;4;
57623;PMS7003;43448;52.264;20.644;2023-05-09T11:30:03;6;3;
57623;PMS7003;43448;52.264;20.644;2023-05-09T11:40:01;3;3;
57623;PMS7003;43448;52.264;20.644;2023-05-09T11:50:01;4;3;
57623;PMS7003;43448;52.264;20.644;2023-05-09T12:00:01;3;3;
57623;PMS7003;43448;52.264;20.644;2023-05-09T12:10:00;5;3;
57623;PMS7003;43448;52.264;20.644;2023-05-09T12:20:01;4;3;
57623;PMS7003;43448;52.264;20.644;2023-05-09T12:30:01;2;1;
57623;PMS7003;43448;52.264;20.644;2023-05-09T12:40:01;3;3;
57623;PMS7003;43448;52.264;20.644;2023-05-09T12:50:01;5;2;
57623;PMS7003;43448;52.264;20.644;2023-05-09T13:00:02;6;3;
57623;PMS7003;43448;52.264;20.644;2023-05-09T13:10:01;3;3;
57623;PMS7003;43448;52.264;20.644;2023-05-09T13:20:00;4;3;
57623;PMS7003;43448;52.264;20.644;2023-05-09T13:30:00;2;2;
57623;PMS7003;43448;52.264;20.644;2023-05-09T13:40:00;3;3;
57623;PMS7003;43448;52.264;20.644;2023-05-09T13:50:00;6;3;
57623;PMS7003;43448;52.264;20.644;2023-05-09T14:00:01;2;2;
57623;PMS7003;43448;52.264;20.644;2023-05-09T14:10:00;3;3;
57623;PMS7003;43448;52.264;20.644;2023-05-09T14:20:00;4;3;
57623;PMS7003;43448;52.264;20.644;2023-05-09T14:30:01;3;2;
57623;PMS7003;43448;52.264;20.644;2023-05-09T14:40:00;4;4;
57623;PMS7003;43448;52.264;20.644;2023-05-09T14:50:00;6;3;
57623;PMS7003;43448;52.264;20.644;2023-05-09T15:00:01;3;3;
57623;PMS7003;43448;52.264;20.644;2023-05-09T15:10:00;3;3;
57623;PMS7003;43448;52.264;20.644;2023-05-09T15:20:01;3;3;
57623;PMS7003;43448;52.264;20.644;2023-05-09T15:30:00;2;2;
57623;PMS7003;43448;52.264;20.644;2023-05-09T15:40:01;3;3;
57623;PMS7003;43448;52.264;20.644;2023-05-09T15:50:00;5;4;
57623;PMS7003;43448;52.264;20.644;2023-05-09T16:00:01;2;2;
57623;PMS7003;43448;52.264;20.644;2023-05-09T16:10:00;3;3;
57623;PMS7003;43448;52.264;20.644;2023-05-09T16:20:00;3;2;
57623;PMS7003;43448;52.264;20.644;2023-05-09T16:30:00;2;2;
57623;PMS7003;43448;52.264;20.644;2023-05-09T16:40:00;3;2;
57623;PMS7003;43448;52.264;20.644;2023-05-09T16:50:00;1;1;
57623;PMS7003;43448;52.264;20.644;2023-05-09T17:00:01;3;3;
57623;PMS7003;43448;52.264;20.644;2023-05-09T17:10:00;5;4;
57623;PMS7003;43448;52.264;20.644;2023-05-09T17:20:00;1;1;
57623;PMS7003;43448;52.264;20.644;2023-05-09T17:30:01;4;4;
57623;PMS7003;43448;52.264;20.644;2023-05-09T17:40:00;2;2;
57623;PMS7003;43448;52.264;20.644;2023-05-09T17:50:00;2;2;
57623;PMS7003;43448;52.264;20.644;2023-05-09T18:00:01;3;3;
57623;PMS7003;43448;52.264;20.644;2023-05-09T18:10:00;2;2;
57623;PMS7003;43448;52.264;20.644;2023-05-09T18:20:00;3;3;
57623;PMS7003;43448;52.264;20.644;2023-05-09T18:30:00;7;4;
57623;PMS7003;43448;52.264;20.644;2023-05-09T18:40:01;5;2;
57623;PMS7003;43448;52.264;20.644;2023-05-09T18:50:00;5;2;
57623;PMS7003;43448;52.264;20.644;2023-05-09T19:00:01;3;3;
57623;PMS7003;43448;52.264;20.644;2023-05-09T19:10:01;2;2;
57623;PMS7003;43448;52.264;20.644;2023-05-09T19:20:00;3;3;
57623;PMS7003;43448;52.264;20.644;2023-05-09T19:30:01;4;4;
57623;PMS7003;43448;52.264;20.644;2023-05-09T19:40:00;7;5;
57623;PMS7003;43448;52.264;20.644;2023-05-09T19:50:00;9;6;
57623;PMS7003;43448;52.264;20.644;2023-05-09T20:00:01;5;4;
57623;PMS7003;43448;52.264;20.644;2023-05-09T20:10:00;4;4;
57623;PMS7003;43448;52.264;20.644;2023-05-09T20:20:00;5;4;
57623;PMS7003;43448;52.264;20.644;2023-05-09T20:30:01;4;4;
57623;PMS7003;43448;52.264;20.644;2023-05-09T20:40:01;5;5;
57623;PMS7003;43448;52.264;20.644;2023-05-09T20:50:00;7;6;
57623;PMS7003;43448;52.264;20.644;2023-05-09T21:00:01;4;4;
57623;PMS7003;43448;52.264;20.644;2023-05-09T21:10:00;4;3;
57623;PMS7003;43448;52.264;20.644;2023-05-09T21:20:00;6;6;
57623;PMS7003;43448;52.264;20.644;2023-05-09T21:30:00;7;6;
57623;PMS7003;43448;52.264;20.644;2023-05-09T21:40:00;9;7;
57623;PMS7003;43448;52.264;20.644;2023-05-09T21:50:00;6;6;
57623;PMS7003;43448;52.264;20.644;2023-05-09T22:00:01;7;4;
57623;PMS7003;43448;52.264;20.644;2023-05-09T22:10:01;6;6;
57623;PMS7003;43448;52.264;20.644;2023-05-09T22:20:00;4;4;
57623;PMS7003;43448;52.264;20.644;2023-05-09T22:30:00;6;6;
57623;PMS7003;43448;52.264;20.644;2023-05-09T22:40:00;7;5;
57623;PMS7003;43448;52.264;20.644;2023-05-09T22:50:00;7;7;
57623;PMS7003;43448;52.264;20.644;2023-05-09T23:00:01;8;6;
57623;PMS7003;43448;52.264;20.644;2023-05-09T23:10:00;5;5;
57623;PMS7003;43448;52.264;20.644;2023-05-09T23:20:00;7;7;
57623;PMS7003;43448;52.264;20.644;2023-05-09T23:30:00;8;6;
57623;PMS7003;43448;52.264;20.644;2023-05-09T23:40:01;7;7;
57623;PMS7003;43448;52.264;20.644;2023-05-09T23:50:01;9;6;
